Time,TemperatureF,DewpointF,PressureIn,WindDirection,WindDirectionDegrees,WindSpeedMPH,WindSpeedGustMPH,Humidity,HourlyPrecipIn,Conditions,Clouds,dailyrainin,SoftwareType,DateUTC
2013-09-01 00:02:00,71.2,70.9,29.77,West,259,0.0,-999.0,99,0.00,,,0.00,Wunderground v.1.15,2013-09-01 04:02:00,
2013-09-01 00:08:00,71.2,70.9,29.77,West,259,0.0,-999.0,99,0.00,,,0.00,Wunderground v.1.15,2013-09-01 04:08:00,
2013-09-01 00:12:00,71.2,70.9,29.77,West,259,0.0,-999.0,99,0.00,,,0.00,Wunderground v.1.15,2013-09-01 04:12:00,
2013-09-01 00:18:00,71.2,70.9,29.77,West,259,0.0,-999.0,99,0.00,,,0.00,Wunderground v.1.15,2013-09-01 04:18:00,
2013-09-01 00:24:00,71.1,70.8,29.78,West,259,0.0,-999.0,99,0.00,,,0.00,Wunderground v.1.15,2013-09-01 04:24:00,
2013-09-01 00:26:00,71.1,70.8,29.78,West,259,0.0,-999.0,99,0.00,,,0.00,Wunderground v.1.15,2013-09-01 04:26:00,
2013-09-01 00:32:00,71.0,70.7,29.78,West,259,0.0,-999.0,99,0.00,,,0.00,Wunderground v.1.15,2013-09-01 04:32:00,
2013-09-01 00:38:00,70.9,70.6,29.77,West,259,0.0,-999.0,99,0.00,,,0.00,Wunderground v.1.15,2013-09-01 04:38:00,
2013-09-01 00:44:00,70.9,70.6,29.77,West,259,0.0,-999.0,99,0.00,,,0.00,Wunderground v.1.15,2013-09-01 04:44:00,
2013-09-01 00:46:00,70.9,70.6,29.77,West,259,0.0,-999.0,99,0.00,,,0.00,Wunderground v.1.15,2013-09-01 04:46:00,
2013-09-01 00:52:00,70.9,70.6,29.77,West,259,0.0,-999.0,99,0.00,,,0.00,Wunderground v.1.15,2013-09-01 04:52:00,
2013-09-01 00:58:00,70.8,70.5,29.76,West,259,0.0,-999.0,99,0.00,,,0.00,Wunderground v.1.15,2013-09-01 04:58:00,
2013-09-01 01:04:00,70.8,70.5,29.76,West,259,0.0,-999.0,99,0.00,,,0.00,Wunderground v.1.15,2013-09-01 05:04:00,
2013-09-01 01:10:00,70.9,70.6,29.76,NNW,331,0.0,-999.0,99,0.00,,,0.00,Wunderground v.1.15,2013-09-01 05:10:00,
2013-09-01 01:16:00,71.0,70.7,29.76,NNW,332,0.0,-999.0,99,0.00,,,0.00,Wunderground v.1.15,2013-09-01 05:16:00,
2013-09-01 01:22:00,71.0,70.7,29.77,NNW,332,0.0,-999.0,99,0.00,,,0.00,Wunderground v.1.15,2013-09-01 05:22:00,
2013-09-01 01:28:00,70.9,70.6,29.77,NNW,331,0.0,-999.0,99,0.00,,,0.00,Wunderground v.1.15,2013-09-01 05:28:00,
2013-09-01 01:34:00,70.7,70.4,29.77,NNW,332,0.0,-999.0,99,0.00,,,0.00,Wunderground v.1.15,2013-09-01 05:34:00,
2013-09-01 01:40:00,70.7,70.4,29.77,NNW,332,0.0,-999.0,99,0.00,,,0.00,Wunderground v.1.15,2013-09-01 05:40:00,
2013-09-01 01:46:00,70.6,70.3,29.76,NNW,331,0.0,-999.0,99,0.00,,,0.00,Wunderground v.1.15,2013-09-01 05:46:00,
2013-09-01 01:52:00,70.5,70.2,29.76,NNW,332,0.0,-999.0,99,0.00,,,0.00,Wunderground v.1.15,2013-09-01 05:52:00,
2013-09-01 01:58:00,70.5,70.2,29.76,NNW,332,0.0,-999.0,99,0.00,,,0.00,Wunderground v.1.15,2013-09-01 05:58:00,
2013-09-01 02:04:00,70.5,70.2,29.76,NNW,332,0.0,-999.0,99,0.00,,,0.00,Wunderground v.1.15,2013-09-01 06:04:00,
2013-09-01 02:10:00,70.5,70.2,29.76,NNW,332,0.0,-999.0,99,0.00,,,0.00,Wunderground v.1.15,2013-09-01 06:10:00,
2013-09-01 02:16:00,70.5,70.2,29.76,NNW,332,0.0,-999.0,99,0.00,,,0.00,Wunderground v.1.15,2013-09-01 06:16:00,
2013-09-01 02:22:00,70.5,70.2,29.76,NNW,332,0.0,-999.0,99,0.00,,,0.00,Wunderground v.1.15,2013-09-01 06:22:00,
2013-09-01 02:28:00,70.4,70.1,29.76,NNW,332,0.0,-999.0,99,0.00,,,0.00,Wunderground v.1.15,2013-09-01 06:28:00,
2013-09-01 02:34:00,70.4,70.1,29.76,NNW,332,0.0,-999.0,99,0.00,,,0.00,Wunderground v.1.15,2013-09-01 06:34:00,
2013-09-01 02:40:00,70.4,70.1,29.76,NNW,331,0.0,-999.0,99,0.00,,,0.00,Wunderground v.1.15,2013-09-01 06:40:00,
2013-09-01 02:46:00,70.4,70.1,29.76,NNW,332,0.0,-999.0,99,0.00,,,0.00,Wunderground v.1.15,2013-09-01 06:46:00,
2013-09-01 02:52:00,70.4,70.1,29.76,NNW,331,0.0,-999.0,99,0.00,,,0.00,Wunderground v.1.15,2013-09-01 06:52:00,
2013-09-01 02:58:00,70.4,70.1,29.75,NNW,332,0.0,-999.0,99,0.00,,,0.00,Wunderground v.1.15,2013-09-01 06:58:00,
2013-09-01 03:04:00,70.4,70.1,29.75,NNW,332,0.0,-999.0,99,0.00,,,0.00,Wunderground v.1.15,2013-09-01 07:04:00,
2013-09-01 03:10:00,70.4,70.1,29.75,NNW,332,0.0,-999.0,99,0.00,,,0.00,Wunderground v.1.15,2013-09-01 07:10:00,
2013-09-01 03:16:00,70.4,70.1,29.75,NNW,332,0.0,-999.0,99,0.00,,,0.00,Wunderground v.1.15,2013-09-01 07:16:00,
2013-09-01 03:22:00,70.4,70.1,29.75,NNW,331,0.0,-999.0,99,0.00,,,0.00,Wunderground v.1.15,2013-09-01 07:22:00,
2013-09-01 03:28:00,70.4,70.1,29.75,NNW,331,0.0,-999.0,99,0.00,,,0.00,Wunderground v.1.15,2013-09-01 07:28:00,
2013-09-01 03:34:00,70.3,70.0,29.75,NNW,332,0.0,-999.0,99,0.00,,,0.00,Wunderground v.1.15,2013-09-01 07:34:00,
2013-09-01 03:40:00,70.3,70.3,29.75,NNW,332,0.0,-999.0,100,0.00,,,0.00,Wunderground v.1.15,2013-09-01 07:40:00,
2013-09-01 03:46:00,70.2,70.2,29.75,NNW,332,0.0,-999.0,100,0.00,,,0.00,Wunderground v.1.15,2013-09-01 07:46:00,
2013-09-01 03:52:00,70.3,70.3,29.75,NNW,332,0.0,-999.0,100,0.00,,,0.00,Wunderground v.1.15,2013-09-01 07:52:00,
2013-09-01 03:58:00,70.4,70.4,29.75,NNW,331,0.0,-999.0,100,0.00,,,0.00,Wunderground v.1.15,2013-09-01 07:58:00,
2013-09-01 04:04:00,70.3,70.3,29.75,NNW,332,0.0,-999.0,100,0.00,,,0.00,Wunderground v.1.15,2013-09-01 08:04:00,
2013-09-01 04:10:00,70.3,70.3,29.75,NNW,332,0.0,-999.0,100,0.00,,,0.00,Wunderground v.1.15,2013-09-01 08:10:00,
2013-09-01 04:16:00,70.3,70.3,29.75,NNW,332,0.0,-999.0,100,0.00,,,0.00,Wunderground v.1.15,2013-09-01 08:16:00,
2013-09-01 04:22:00,70.3,70.3,29.75,NNW,332,0.0,-999.0,100,0.00,,,0.00,Wunderground v.1.15,2013-09-01 08:22:00,
2013-09-01 04:28:00,70.3,70.3,29.75,NNW,331,0.0,-999.0,100,0.00,,,0.00,Wunderground v.1.15,2013-09-01 08:28:00,
2013-09-01 04:34:00,70.3,70.3,29.76,NNW,331,0.0,-999.0,100,0.00,,,0.00,Wunderground v.1.15,2013-09-01 08:34:00,
2013-09-01 04:40:00,70.3,70.3,29.75,NNW,332,0.0,-999.0,100,0.00,,,0.00,Wunderground v.1.15,2013-09-01 08:40:00,
2013-09-01 04:46:00,70.3,70.3,29.76,NNW,331,0.0,-999.0,100,0.00,,,0.00,Wunderground v.1.15,2013-09-01 08:46:00,
2013-09-01 04:52:00,70.3,70.3,29.76,NNW,332,0.0,-999.0,100,0.00,,,0.00,Wunderground v.1.15,2013-09-01 08:52:00,
2013-09-01 04:58:00,70.3,70.3,29.76,NNW,332,0.0,-999.0,100,0.00,,,0.00,Wunderground v.1.15,2013-09-01 08:58:00,
2013-09-01 05:04:00,70.4,70.4,29.76,NNW,332,0.0,-999.0,100,0.00,,,0.00,Wunderground v.1.15,2013-09-01 09:04:00,
2013-09-01 05:10:00,70.4,70.4,29.76,NNW,331,0.0,-999.0,100,0.00,,,0.00,Wunderground v.1.15,2013-09-01 09:10:00,
2013-09-01 05:16:00,70.4,70.4,29.77,NNW,332,0.0,-999.0,100,0.00,,,0.00,Wunderground v.1.15,2013-09-01 09:16:00,
2013-09-01 05:22:00,70.4,70.4,29.77,NNW,331,0.0,-999.0,100,0.00,,,0.00,Wunderground v.1.15,2013-09-01 09:22:00,
2013-09-01 05:28:00,70.4,70.4,29.77,NNW,332,0.0,-999.0,100,0.00,,,0.01,Wunderground v.1.15,2013-09-01 09:28:00,
2013-09-01 05:34:00,70.4,70.4,29.77,NNW,331,0.0,-999.0,100,0.00,,,0.01,Wunderground v.1.15,2013-09-01 09:34:00,
2013-09-01 05:40:00,70.4,70.4,29.77,NNW,332,0.0,-999.0,100,0.00,,,0.01,Wunderground v.1.15,2013-09-01 09:40:00,
2013-09-01 05:46:00,70.5,70.5,29.77,NNW,332,0.0,-999.0,100,0.00,,,0.01,Wunderground v.1.15,2013-09-01 09:46:00,
2013-09-01 05:52:00,70.4,70.4,29.77,NNW,332,0.0,-999.0,100,0.00,,,0.01,Wunderground v.1.15,2013-09-01 09:52:00,
2013-09-01 05:58:00,70.4,70.4,29.77,NNW,331,0.0,-999.0,100,0.00,,,0.01,Wunderground v.1.15,2013-09-01 09:58:00,
2013-09-01 06:04:00,70.3,70.3,29.77,NNW,332,0.0,-999.0,100,0.00,,,0.01,Wunderground v.1.15,2013-09-01 10:04:00,
2013-09-01 06:10:00,70.2,70.2,29.77,NNW,331,0.0,-999.0,100,0.00,,,0.01,Wunderground v.1.15,2013-09-01 10:10:00,
2013-09-01 06:16:00,70.2,70.2,29.77,NNW,332,0.0,-999.0,100,0.00,,,0.01,Wunderground v.1.15,2013-09-01 10:16:00,
2013-09-01 06:22:00,70.3,70.3,29.77,NNW,332,0.0,-999.0,100,0.00,,,0.01,Wunderground v.1.15,2013-09-01 10:22:00,
2013-09-01 06:28:00,70.3,70.3,29.78,NNW,332,0.0,-999.0,100,0.00,,,0.01,Wunderground v.1.15,2013-09-01 10:28:00,
2013-09-01 06:34:00,70.1,70.1,29.78,NNW,332,0.0,-999.0,100,0.00,,,0.01,Wunderground v.1.15,2013-09-01 10:34:00,
2013-09-01 06:40:00,70.1,70.1,29.78,NNW,332,0.0,-999.0,100,0.00,,,0.01,Wunderground v.1.15,2013-09-01 10:40:00,
2013-09-01 06:46:00,70.1,70.1,29.79,NNW,332,0.0,-999.0,100,0.00,,,0.01,Wunderground v.1.15,2013-09-01 10:46:00,
2013-09-01 06:52:00,70.2,70.2,29.79,NNW,332,0.0,-999.0,100,0.00,,,0.01,Wunderground v.1.15,2013-09-01 10:52:00,
2013-09-01 06:58:00,70.3,70.3,29.79,NNW,331,0.0,-999.0,100,0.00,,,0.01,Wunderground v.1.15,2013-09-01 10:58:00,
2013-09-01 07:04:00,70.4,70.4,29.79,NNW,332,0.0,-999.0,100,0.00,,,0.01,Wunderground v.1.15,2013-09-01 11:04:00,
2013-09-01 07:10:00,70.5,70.5,29.79,NNW,331,0.0,-999.0,100,0.00,,,0.01,Wunderground v.1.15,2013-09-01 11:10:00,
2013-09-01 07:16:00,70.5,70.5,29.80,NNW,332,0.0,-999.0,100,0.00,,,0.01,Wunderground v.1.15,2013-09-01 11:16:00,
2013-09-01 07:22:00,70.5,70.5,29.80,NNW,332,0.0,-999.0,100,0.00,,,0.01,Wunderground v.1.15,2013-09-01 11:22:00,
2013-09-01 07:28:00,70.6,70.6,29.80,NNW,332,0.0,-999.0,100,0.00,,,0.01,Wunderground v.1.15,2013-09-01 11:28:00,
2013-09-01 07:34:00,70.6,70.6,29.80,NNW,331,0.0,-999.0,100,0.00,,,0.01,Wunderground v.1.15,2013-09-01 11:34:00,
2013-09-01 07:40:00,70.7,70.7,29.80,NNW,332,0.0,-999.0,100,0.00,,,0.01,Wunderground v.1.15,2013-09-01 11:40:00,
2013-09-01 07:46:00,70.7,70.7,29.80,NNW,332,0.0,-999.0,100,0.00,,,0.01,Wunderground v.1.15,2013-09-01 11:46:00,
2013-09-01 07:52:00,70.8,70.8,29.79,NNW,332,0.0,-999.0,100,0.00,,,0.01,Wunderground v.1.15,2013-09-01 11:52:00,
2013-09-01 07:58:00,71.0,71.0,29.79,NNW,331,0.0,-999.0,100,0.00,,,0.01,Wunderground v.1.15,2013-09-01 11:58:00,
2013-09-01 08:04:00,71.1,71.1,29.79,NNW,331,0.0,-999.0,100,0.00,,,0.01,Wunderground v.1.15,2013-09-01 12:04:00,
2013-09-01 08:10:00,71.2,71.2,29.79,NNW,332,0.0,-999.0,100,0.00,,,0.01,Wunderground v.1.15,2013-09-01 12:10:00,
2013-09-01 08:16:00,71.3,71.3,29.79,NNW,331,0.0,0.0,100,0.00,,,0.01,Wunderground v.1.15,2013-09-01 12:16:00,
2013-09-01 08:22:00,71.4,71.4,29.79,NNW,332,0.0,0.0,100,0.00,,,0.01,Wunderground v.1.15,2013-09-01 12:22:00,
2013-09-01 08:28:00,71.3,71.3,29.79,NNW,332,0.0,0.0,100,0.00,,,0.01,Wunderground v.1.15,2013-09-01 12:28:00,
2013-09-01 08:34:00,71.3,71.3,29.80,NNW,332,0.0,0.0,100,0.00,,,0.01,Wunderground v.1.15,2013-09-01 12:34:00,
2013-09-01 08:40:00,71.5,71.5,29.80,NNW,332,0.0,0.0,100,0.00,,,0.01,Wunderground v.1.15,2013-09-01 12:40:00,
2013-09-01 08:46:00,71.7,71.7,29.80,NNW,332,0.0,0.0,100,0.00,,,0.01,Wunderground v.1.15,2013-09-01 12:46:00,
2013-09-01 08:52:00,71.9,71.9,29.80,NNW,332,0.0,0.0,100,0.00,,,0.01,Wunderground v.1.15,2013-09-01 12:52:00,
2013-09-01 08:58:00,72.1,72.1,29.80,NNW,332,0.0,0.0,100,0.00,,,0.01,Wunderground v.1.15,2013-09-01 12:58:00,
2013-09-01 09:04:00,72.2,72.2,29.80,NNW,332,0.0,0.0,100,0.00,,,0.01,Wunderground v.1.15,2013-09-01 13:04:00,
2013-09-01 09:10:00,72.3,72.3,29.80,NNW,332,0.0,0.0,100,0.00,,,0.01,Wunderground v.1.15,2013-09-01 13:10:00,
2013-09-01 09:16:00,72.5,72.5,29.80,NNW,331,0.0,0.0,100,0.00,,,0.01,Wunderground v.1.15,2013-09-01 13:16:00,
2013-09-01 09:22:00,72.5,72.5,29.80,NNW,332,0.0,0.0,100,0.00,,,0.01,Wunderground v.1.15,2013-09-01 13:22:00,
2013-09-01 09:28:00,72.6,72.6,29.80,NNW,332,0.0,0.0,100,0.00,,,0.01,Wunderground v.1.15,2013-09-01 13:28:00,
2013-09-01 09:34:00,72.5,72.5,29.79,NNW,332,0.0,3.0,100,0.00,,,0.01,Wunderground v.1.15,2013-09-01 13:34:00,
2013-09-01 09:40:00,72.8,72.8,29.79,NNW,332,0.0,0.0,100,0.00,,,0.01,Wunderground v.1.15,2013-09-01 13:40:00,
2013-09-01 09:46:00,73.2,73.2,29.79,NNW,331,0.0,0.0,100,0.00,,,0.01,Wunderground v.1.15,2013-09-01 13:46:00,
2013-09-01 09:52:00,73.5,73.5,29.79,WSW,242,0.0,2.0,100,0.00,,,0.01,Wunderground v.1.15,2013-09-01 13:52:00,
2013-09-01 09:58:00,73.9,73.9,29.78,WSW,243,0.0,2.0,100,0.00,,,0.01,Wunderground v.1.15,2013-09-01 13:58:00,
2013-09-01 10:04:00,74.2,74.2,29.78,NW,313,0.0,0.0,100,0.00,,,0.01,Wunderground v.1.15,2013-09-01 14:04:00,
2013-09-01 10:10:00,74.8,74.5,29.79,NW,311,0.0,0.0,99,0.00,,,0.01,Wunderground v.1.15,2013-09-01 14:10:00,
2013-09-01 10:16:00,75.2,74.9,29.79,NW,311,1.0,1.0,99,0.00,,,0.01,Wunderground v.1.15,2013-09-01 14:16:00,
2013-09-01 10:22:00,75.4,74.5,29.79,West,268,1.0,2.0,97,0.00,,,0.01,Wunderground v.1.15,2013-09-01 14:22:00,
2013-09-01 10:28:00,75.6,74.4,29.80,North,360,0.0,2.0,96,0.00,,,0.01,Wunderground v.1.15,2013-09-01 14:28:00,
2013-09-01 10:34:00,76.1,74.6,29.80,North,5,0.0,0.0,95,0.00,,,0.01,Wunderground v.1.15,2013-09-01 14:34:00,
2013-09-01 10:40:00,76.8,74.9,29.80,ENE,71,0.0,0.0,94,0.00,,,0.01,Wunderground v.1.15,2013-09-01 14:40:00,
2013-09-01 10:46:00,77.1,74.9,29.79,ENE,71,0.0,0.0,93,0.00,,,0.01,Wunderground v.1.15,2013-09-01 14:46:00,
2013-09-01 10:52:00,77.8,75.6,29.79,East,80,0.0,0.0,93,0.00,,,0.01,Wunderground v.1.15,2013-09-01 14:52:00,
2013-09-01 10:58:00,78.2,75.4,29.79,NW,316,1.0,3.0,91,0.00,,,0.01,Wunderground v.1.15,2013-09-01 14:58:00,
2013-09-01 11:04:00,78.3,75.1,29.79,NW,316,1.0,3.0,90,0.00,,,0.01,Wunderground v.1.15,2013-09-01 15:04:00,
2013-09-01 11:10:00,78.4,75.6,29.79,NNE,22,1.0,1.0,91,0.00,,,0.01,Wunderground v.1.15,2013-09-01 15:10:00,
2013-09-01 11:16:00,78.7,75.8,29.79,NNE,18,0.0,1.0,91,0.00,,,0.01,Wunderground v.1.15,2013-09-01 15:16:00,
2013-09-01 11:22:00,78.7,75.5,29.79,SSW,211,1.0,1.0,90,0.00,,,0.01,Wunderground v.1.15,2013-09-01 15:22:00,
2013-09-01 11:28:00,78.8,75.9,29.80,North,360,1.0,1.0,91,0.00,,,0.01,Wunderground v.1.15,2013-09-01 15:28:00,
2013-09-01 11:34:00,79.0,75.8,29.80,East,91,1.0,6.0,90,0.00,,,0.01,Wunderground v.1.15,2013-09-01 15:34:00,
2013-09-01 11:40:00,79.2,76.0,29.79,West,281,2.0,2.0,90,0.00,,,0.01,Wunderground v.1.15,2013-09-01 15:40:00,
2013-09-01 11:46:00,79.1,75.6,29.79,NE,48,1.0,4.0,89,0.00,,,0.01,Wunderground v.1.15,2013-09-01 15:46:00,
2013-09-01 11:52:00,78.9,75.0,29.79,SW,226,1.0,2.0,88,0.00,,,0.01,Wunderground v.1.15,2013-09-01 15:52:00,
2013-09-01 11:58:00,78.1,74.6,29.79,West,263,1.0,2.0,89,0.00,,,0.01,Wunderground v.1.15,2013-09-01 15:58:00,
2013-09-01 12:04:00,77.7,74.5,29.79,NE,56,1.0,1.0,90,0.00,,,0.01,Wunderground v.1.15,2013-09-01 16:04:00,
2013-09-01 12:10:00,77.3,74.5,29.78,SW,232,0.0,0.0,91,0.00,,,0.01,Wunderground v.1.15,2013-09-01 16:10:00,
2013-09-01 12:16:00,77.2,74.4,29.78,NNW,329,1.0,1.0,91,0.00,,,0.01,Wunderground v.1.15,2013-09-01 16:16:00,
2013-09-01 12:22:00,77.3,74.5,29.78,North,360,1.0,1.0,91,0.00,,,0.01,Wunderground v.1.15,2013-09-01 16:22:00,
2013-09-01 12:28:00,77.1,74.3,29.79,North,360,0.0,1.0,91,0.00,,,0.01,Wunderground v.1.15,2013-09-01 16:28:00,
2013-09-01 12:34:00,76.8,74.3,29.79,North,5,0.0,3.0,92,0.00,,,0.01,Wunderground v.1.15,2013-09-01 16:34:00,
2013-09-01 12:40:00,76.4,74.2,29.79,SE,126,0.0,2.0,93,0.00,,,0.01,Wunderground v.1.15,2013-09-01 16:40:00,
2013-09-01 12:46:00,76.2,74.0,29.79,SE,128,0.0,2.0,93,0.00,,,0.01,Wunderground v.1.15,2013-09-01 16:46:00,
2013-09-01 12:52:00,76.1,73.9,29.79,WSW,245,0.0,0.0,93,0.00,,,0.01,Wunderground v.1.15,2013-09-01 16:52:00,
2013-09-01 12:58:00,76.1,74.2,29.79,WSW,245,0.0,0.0,94,0.00,,,0.01,Wunderground v.1.15,2013-09-01 16:58:00,
2013-09-01 13:04:00,76.1,74.2,29.79,WSW,245,0.0,0.0,94,0.00,,,0.01,Wunderground v.1.15,2013-09-01 17:04:00,
2013-09-01 13:10:00,76.1,74.2,29.79,West,271,0.0,0.0,94,0.00,,,0.01,Wunderground v.1.15,2013-09-01 17:10:00,
2013-09-01 13:16:00,76.1,74.2,29.79,West,271,0.0,0.0,94,0.00,,,0.01,Wunderground v.1.15,2013-09-01 17:16:00,
2013-09-01 13:22:00,76.2,74.0,29.79,West,271,0.0,0.0,93,0.00,,,0.01,Wunderground v.1.15,2013-09-01 17:22:00,
2013-09-01 13:28:00,76.5,74.3,29.78,West,271,0.0,0.0,93,0.00,,,0.01,Wunderground v.1.15,2013-09-01 17:28:00,
2013-09-01 13:34:00,76.7,74.5,29.78,WSW,248,0.0,0.0,93,0.00,,,0.01,Wunderground v.1.15,2013-09-01 17:34:00,
2013-09-01 13:40:00,76.9,74.4,29.78,WNW,299,0.0,0.0,92,0.00,,,0.01,Wunderground v.1.15,2013-09-01 17:40:00,
2013-09-01 13:46:00,77.1,74.6,29.78,WNW,299,0.0,0.0,92,0.00,,,0.01,Wunderground v.1.15,2013-09-01 17:46:00,
2013-09-01 13:52:00,77.1,74.6,29.78,NW,323,0.0,0.0,92,0.00,,,0.01,Wunderground v.1.15,2013-09-01 17:52:00,
2013-09-01 13:58:00,77.3,74.8,29.78,NW,323,0.0,0.0,92,0.00,,,0.01,Wunderground v.1.15,2013-09-01 17:58:00,
2013-09-01 14:04:00,77.5,75.0,29.78,NW,322,0.0,0.0,92,0.00,,,0.01,Wunderground v.1.15,2013-09-01 18:04:00,
2013-09-01 14:10:00,77.5,75.0,29.78,NW,322,0.0,0.0,92,0.00,,,0.01,Wunderground v.1.15,2013-09-01 18:10:00,
2013-09-01 14:16:00,77.4,75.2,29.78,NW,322,0.0,0.0,93,0.00,,,0.01,Wunderground v.1.15,2013-09-01 18:16:00,
2013-09-01 14:22:00,77.5,75.0,29.78,NW,315,0.0,0.0,92,0.00,,,0.01,Wunderground v.1.15,2013-09-01 18:22:00,
2013-09-01 14:28:00,77.6,75.4,29.77,NW,315,0.0,1.0,93,0.00,,,0.01,Wunderground v.1.15,2013-09-01 18:28:00,
2013-09-01 14:34:00,78.0,75.5,29.77,North,355,0.0,2.0,92,0.00,,,0.01,Wunderground v.1.15,2013-09-01 18:34:00,
2013-09-01 14:40:00,78.2,75.4,29.77,NNW,341,0.0,0.0,91,0.00,,,0.01,Wunderground v.1.15,2013-09-01 18:40:00,
2013-09-01 14:46:00,78.4,75.6,29.77,NNW,346,0.0,1.0,91,0.00,,,0.01,Wunderground v.1.15,2013-09-01 18:46:00,
2013-09-01 14:52:00,78.5,75.7,29.77,North,5,0.0,0.0,91,0.00,,,0.01,Wunderground v.1.15,2013-09-01 18:52:00,
2013-09-01 14:58:00,78.8,75.6,29.77,North,5,0.0,0.0,90,0.00,,,0.01,Wunderground v.1.15,2013-09-01 18:58:00,
2013-09-01 15:04:00,79.2,76.0,29.77,NW,326,0.0,0.0,90,0.00,,,0.01,Wunderground v.1.15,2013-09-01 19:04:00,
2013-09-01 15:10:00,79.4,75.5,29.77,North,360,0.0,0.0,88,0.00,,,0.01,Wunderground v.1.15,2013-09-01 19:10:00,
2013-09-01 15:16:00,79.8,76.3,29.77,North,360,0.0,1.0,89,0.00,,,0.01,Wunderground v.1.15,2013-09-01 19:16:00,
2013-09-01 15:22:00,80.1,76.2,29.77,NE,52,0.0,0.0,88,0.00,,,0.01,Wunderground v.1.15,2013-09-01 19:22:00,
2013-09-01 15:28:00,79.9,75.7,29.77,West,274,1.0,1.0,87,0.00,,,0.01,Wunderground v.1.15,2013-09-01 19:28:00,
2013-09-01 15:34:00,79.6,75.7,29.77,NW,307,1.0,1.0,88,0.00,,,0.01,Wunderground v.1.15,2013-09-01 19:34:00,
2013-09-01 15:40:00,79.7,75.5,29.77,SW,218,0.0,0.0,87,0.00,,,0.01,Wunderground v.1.15,2013-09-01 19:40:00,
2013-09-01 15:46:00,79.8,75.9,29.77,WSW,254,0.0,0.0,88,0.00,,,0.01,Wunderground v.1.15,2013-09-01 19:46:00,
2013-09-01 15:52:00,79.8,75.9,29.76,South,183,0.0,0.0,88,0.00,,,0.01,Wunderground v.1.15,2013-09-01 19:52:00,
2013-09-01 15:58:00,79.7,75.5,29.77,NNW,334,0.0,2.0,87,0.00,,,0.01,Wunderground v.1.15,2013-09-01 19:58:00,
2013-09-01 16:04:00,79.6,75.7,29.76,SE,132,0.0,2.0,88,0.00,,,0.01,Wunderground v.1.15,2013-09-01 20:04:00,
2013-09-01 16:10:00,79.4,75.5,29.76,WSW,253,0.0,0.0,88,0.00,,,0.01,Wunderground v.1.15,2013-09-01 20:10:00,
2013-09-01 16:16:00,79.2,75.7,29.76,SSW,209,0.0,0.0,89,0.00,,,0.01,Wunderground v.1.15,2013-09-01 20:16:00,
2013-09-01 16:22:00,78.7,75.2,29.75,North,9,0.0,0.0,89,0.00,,,0.01,Wunderground v.1.15,2013-09-01 20:22:00,
2013-09-01 16:28:00,78.4,75.2,29.75,WNW,303,1.0,3.0,90,0.00,,,0.01,Wunderground v.1.15,2013-09-01 20:28:00,
2013-09-01 16:34:00,78.4,75.2,29.75,WNW,294,1.0,1.0,90,0.00,,,0.01,Wunderground v.1.15,2013-09-01 20:34:00,
2013-09-01 16:40:00,78.7,75.5,29.76,West,280,1.0,1.0,90,0.00,,,0.01,Wunderground v.1.15,2013-09-01 20:40:00,
2013-09-01 16:46:00,78.9,75.7,29.75,NW,307,0.0,1.0,90,0.00,,,0.01,Wunderground v.1.15,2013-09-01 20:46:00,
2013-09-01 16:52:00,79.2,76.0,29.75,NW,309,0.0,0.0,90,0.00,,,0.01,Wunderground v.1.15,2013-09-01 20:52:00,
2013-09-01 16:58:00,79.7,76.2,29.76,East,96,0.0,0.0,89,0.00,,,0.01,Wunderground v.1.15,2013-09-01 20:58:00,
2013-09-01 17:04:00,80.2,76.0,29.76,ESE,103,0.0,0.0,87,0.00,,,0.01,Wunderground v.1.15,2013-09-01 21:04:00,
2013-09-01 17:10:00,80.5,76.6,29.76,ESE,103,0.0,0.0,88,0.00,,,0.01,Wunderground v.1.15,2013-09-01 21:10:00,
2013-09-01 17:16:00,80.5,76.3,29.75,ESE,103,0.0,1.0,87,0.00,,,0.01,Wunderground v.1.15,2013-09-01 21:16:00,
2013-09-01 17:22:00,80.5,76.3,29.75,East,96,0.0,0.0,87,0.00,,,0.01,Wunderground v.1.15,2013-09-01 21:22:00,
2013-09-01 17:28:00,80.1,75.9,29.75,East,101,0.0,0.0,87,0.00,,,0.01,Wunderground v.1.15,2013-09-01 21:28:00,
2013-09-01 17:34:00,80.3,75.7,29.75,East,84,0.0,0.0,86,0.00,,,0.01,Wunderground v.1.15,2013-09-01 21:34:00,
2013-09-01 17:40:00,80.2,75.6,29.75,East,92,0.0,0.0,86,0.00,,,0.01,Wunderground v.1.15,2013-09-01 21:40:00,
2013-09-01 17:46:00,79.9,75.7,29.75,NE,41,0.0,0.0,87,0.00,,,0.01,Wunderground v.1.15,2013-09-01 21:46:00,
2013-09-01 17:52:00,79.3,75.4,29.76,NNE,19,0.0,0.0,88,0.00,,,0.01,Wunderground v.1.15,2013-09-01 21:52:00,
2013-09-01 17:58:00,78.7,75.2,29.77,SSE,149,0.0,1.0,89,0.00,,,0.01,Wunderground v.1.15,2013-09-01 21:58:00,
2013-09-01 18:04:00,78.2,75.0,29.77,West,263,0.0,0.0,90,0.00,,,0.01,Wunderground v.1.15,2013-09-01 22:04:00,
2013-09-01 18:10:00,77.8,75.0,29.77,SSW,196,0.0,1.0,91,0.00,,,0.01,Wunderground v.1.15,2013-09-01 22:10:00,
2013-09-01 18:16:00,77.5,74.7,29.77,WSW,246,0.0,1.0,91,0.00,,,0.01,Wunderground v.1.15,2013-09-01 22:16:00,
2013-09-01 18:22:00,77.3,74.8,29.76,WSW,246,0.0,0.0,92,0.00,,,0.01,Wunderground v.1.15,2013-09-01 22:22:00,
2013-09-01 18:28:00,77.1,74.6,29.76,WSW,248,0.0,1.0,92,0.00,,,0.01,Wunderground v.1.15,2013-09-01 22:28:00,
2013-09-01 18:34:00,77.0,74.5,29.76,WSW,248,0.0,1.0,92,0.00,,,0.01,Wunderground v.1.15,2013-09-01 22:34:00,
2013-09-01 18:40:00,76.9,74.4,29.76,WSW,248,0.0,0.0,92,0.00,,,0.01,Wunderground v.1.15,2013-09-01 22:40:00,
2013-09-01 18:46:00,76.6,74.4,29.76,NW,304,0.0,0.0,93,0.00,,,0.01,Wunderground v.1.15,2013-09-01 22:46:00,
2013-09-01 18:52:00,76.4,74.2,29.76,NW,304,0.0,0.0,93,0.00,,,0.01,Wunderground v.1.15,2013-09-01 22:52:00,
2013-09-01 18:58:00,76.1,74.2,29.76,NW,304,0.0,0.0,94,0.00,,,0.01,Wunderground v.1.15,2013-09-01 22:58:00,
2013-09-01 19:04:00,75.8,73.9,29.76,NW,304,0.0,0.0,94,0.00,,,0.01,Wunderground v.1.15,2013-09-01 23:04:00,
2013-09-01 19:10:00,75.5,73.7,29.76,NW,304,0.0,0.0,94,0.00,,,0.01,Wunderground v.1.15,2013-09-01 23:10:00,
2013-09-01 19:16:00,75.3,73.5,29.76,NW,304,0.0,0.0,94,0.00,,,0.01,Wunderground v.1.15,2013-09-01 23:16:00,
2013-09-01 19:22:00,75.2,73.7,29.76,NW,304,0.0,0.0,95,0.00,,,0.01,Wunderground v.1.15,2013-09-01 23:22:00,
2013-09-01 19:28:00,75.0,73.5,29.76,NW,304,0.0,0.0,95,0.00,,,0.01,Wunderground v.1.15,2013-09-01 23:28:00,
2013-09-01 19:34:00,74.7,73.2,29.76,NW,304,0.0,0.0,95,0.00,,,0.01,Wunderground v.1.15,2013-09-01 23:34:00,
2013-09-01 19:40:00,74.4,73.2,29.76,NW,304,0.0,0.0,96,0.00,,,0.01,Wunderground v.1.15,2013-09-01 23:40:00,
2013-09-01 19:46:00,74.2,73.0,29.76,WNW,303,0.0,0.0,96,0.00,,,0.01,Wunderground v.1.15,2013-09-01 23:46:00,
2013-09-01 19:52:00,74.1,72.9,29.76,WNW,303,0.0,0.0,96,0.00,,,0.01,Wunderground v.1.15,2013-09-01 23:52:00,
2013-09-01 19:58:00,74.0,73.1,29.76,NW,304,0.0,0.0,97,0.00,,,0.01,Wunderground v.1.15,2013-09-01 23:58:00,
2013-09-01 20:04:00,73.9,73.0,29.76,NW,304,0.0,0.0,97,0.00,,,0.01,Wunderground v.1.15,2013-09-02 00:04:00,
2013-09-01 20:10:00,73.7,72.8,29.77,NW,304,0.0,0.0,97,0.00,,,0.01,Wunderground v.1.15,2013-09-02 00:10:00,
2013-09-01 20:16:00,73.6,72.7,29.77,WNW,303,0.0,0.0,97,0.00,,,0.01,Wunderground v.1.15,2013-09-02 00:16:00,
2013-09-01 20:22:00,73.6,72.7,29.77,WNW,303,0.0,0.0,97,0.00,,,0.01,Wunderground v.1.15,2013-09-02 00:22:00,
2013-09-01 20:28:00,73.5,72.6,29.77,NW,304,0.0,0.0,97,0.00,,,0.01,Wunderground v.1.15,2013-09-02 00:28:00,
2013-09-01 20:34:00,73.5,72.6,29.78,NW,304,0.0,0.0,97,0.00,,,0.01,Wunderground v.1.15,2013-09-02 00:34:00,
2013-09-01 20:40:00,73.3,72.4,29.78,NW,304,0.0,0.0,97,0.00,,,0.01,Wunderground v.1.15,2013-09-02 00:40:00,
2013-09-01 20:46:00,73.2,72.6,29.78,WNW,300,0.0,0.0,98,0.00,,,0.01,Wunderground v.1.15,2013-09-02 00:46:00,
2013-09-01 20:52:00,73.1,72.5,29.78,WNW,299,0.0,0.0,98,0.00,,,0.01,Wunderground v.1.15,2013-09-02 00:52:00,
2013-09-01 20:58:00,73.0,72.4,29.78,WNW,300,0.0,0.0,98,0.00,,,0.01,Wunderground v.1.15,2013-09-02 00:58:00,
2013-09-01 21:04:00,72.9,72.0,29.78,WNW,299,0.0,0.0,97,0.00,,,0.01,Wunderground v.1.15,2013-09-02 01:04:00,
2013-09-01 21:10:00,72.8,72.2,29.78,WNW,299,0.0,0.0,98,0.00,,,0.01,Wunderground v.1.15,2013-09-02 01:10:00,
2013-09-01 21:16:00,72.8,72.2,29.79,WNW,299,0.0,0.0,98,0.00,,,0.01,Wunderground v.1.15,2013-09-02 01:16:00,
2013-09-01 21:22:00,72.7,72.1,29.79,WNW,300,0.0,0.0,98,0.00,,,0.01,Wunderground v.1.15,2013-09-02 01:22:00,
2013-09-01 21:28:00,72.6,72.0,29.79,WNW,300,0.0,0.0,98,0.00,,,0.01,Wunderground v.1.15,2013-09-02 01:28:00,
2013-09-01 21:34:00,72.6,72.0,29.78,WNW,300,0.0,0.0,98,0.00,,,0.01,Wunderground v.1.15,2013-09-02 01:34:00,
2013-09-01 21:40:00,72.5,71.9,29.78,WNW,299,0.0,0.0,98,0.00,,,0.01,Wunderground v.1.15,2013-09-02 01:40:00,
2013-09-01 21:46:00,72.4,71.8,29.79,WNW,299,0.0,0.0,98,0.00,,,0.01,Wunderground v.1.15,2013-09-02 01:46:00,
2013-09-01 21:52:00,72.3,71.7,29.78,WNW,300,0.0,0.0,98,0.00,,,0.01,Wunderground v.1.15,2013-09-02 01:52:00,
2013-09-01 21:58:00,72.2,71.6,29.78,WNW,300,0.0,0.0,98,0.00,,,0.01,Wunderground v.1.15,2013-09-02 01:58:00,
2013-09-01 22:04:00,72.1,71.5,29.78,WNW,299,0.0,0.0,98,0.00,,,0.01,Wunderground v.1.15,2013-09-02 02:04:00,
2013-09-01 22:10:00,72.1,71.5,29.78,WNW,300,0.0,0.0,98,0.00,,,0.01,Wunderground v.1.15,2013-09-02 02:10:00,
2013-09-01 22:16:00,72.0,71.4,29.78,WNW,300,0.0,0.0,98,0.00,,,0.01,Wunderground v.1.15,2013-09-02 02:16:00,
2013-09-01 22:24:00,72.0,71.7,29.78,WNW,300,0.0,0.0,99,0.00,,,0.01,Wunderground v.1.15,2013-09-02 02:24:00,
2013-09-01 22:30:00,72.0,71.7,29.78,WNW,299,0.0,0.0,99,0.00,,,0.01,Wunderground v.1.15,2013-09-02 02:30:00,
2013-09-01 22:36:00,72.0,71.7,29.78,WNW,300,0.0,0.0,99,0.00,,,0.01,Wunderground v.1.15,2013-09-02 02:36:00,
2013-09-01 22:42:00,72.0,71.7,29.78,WNW,299,0.0,0.0,99,0.00,,,0.01,Wunderground v.1.15,2013-09-02 02:42:00,
2013-09-01 22:48:00,72.0,71.7,29.77,WNW,295,0.0,0.0,99,0.00,,,0.01,Wunderground v.1.15,2013-09-02 02:48:00,
2013-09-01 22:54:00,72.0,71.7,29.77,WNW,296,0.0,0.0,99,0.00,,,0.01,Wunderground v.1.15,2013-09-02 02:54:00,
2013-09-01 23:00:00,72.0,71.7,29.77,ESE,107,0.0,0.0,99,0.00,,,0.01,Wunderground v.1.15,2013-09-02 03:00:00,
2013-09-01 23:06:00,72.0,71.7,29.77,ESE,111,0.0,0.0,99,0.00,,,0.01,Wunderground v.1.15,2013-09-02 03:06:00,
2013-09-01 23:12:00,72.0,71.7,29.77,East,83,0.0,0.0,99,0.00,,,0.01,Wunderground v.1.15,2013-09-02 03:12:00,
2013-09-01 23:18:00,72.0,71.7,29.77,ENE,69,0.0,0.0,99,0.00,,,0.01,Wunderground v.1.15,2013-09-02 03:18:00,
2013-09-01 23:24:00,72.0,71.7,29.77,ENE,72,0.0,0.0,99,0.00,,,0.01,Wunderground v.1.15,2013-09-02 03:24:00,
2013-09-01 23:30:00,72.0,71.7,29.77,ENE,73,0.0,0.0,99,0.00,,,0.01,Wunderground v.1.15,2013-09-02 03:30:00,
2013-09-01 23:36:00,72.0,71.7,29.77,ENE,72,0.0,0.0,99,0.00,,,0.01,Wunderground v.1.15,2013-09-02 03:36:00,
2013-09-01 23:42:00,72.1,71.8,29.77,WSW,241,0.0,0.0,99,0.00,,,0.01,Wunderground v.1.15,2013-09-02 03:42:00,
2013-09-01 23:48:00,72.1,71.8,29.77,WSW,241,0.0,0.0,99,0.00,,,0.01,Wunderground v.1.15,2013-09-02 03:48:00,
2013-09-01 23:54:00,72.1,71.8,29.76,WSW,241,0.0,0.0,99,0.00,,,0.01,Wunderground v.1.15,2013-09-02 03:54:00,